Impacts TAF Board INFO
FOR SITUATIONAL AWARENESS. NOT TO BE USED FOR FLIGHT PLANNING PURPOSES.
IDs:

KLAS - Las Vegas/McCarran I, NV, US

Issued at 1123 UTC 18 Jan 2018
Updated at 1327 UTC 18 Jan 2018
Potential Impact None Slight Moderate High
Time<<19/14Z 19/15Z 19/16Z 19/17Z 19/18Z 19/19Z 19/20Z 19/21Z 19/22Z 19/23Z 20/00Z 20/01Z 20/02Z
Type PRVL PRVL PRVL PRVL
VIS >6 >6 >6 >6
CIG 250 250 250 250
Cover BKN BKN BKN BKN
FltCat VFR VFR VFR VFR
WX -- -- -- --
WDir 210 210 210 210
WSpd 8 8 8 8
WGst -- -- -- --

Raw TAF
KLAS 181123Z 1812/1918 VRB05KT P6SM OVC250
  FM181900 09007KT P6SM BKN250
  FM190300 21008KT P6SM BKN250


METAR Board
Radar Display
Forecast Discussion

FOR SITUATIONAL AWARENESS. NOT TO BE USED FOR FLIGHT PLANNING PURPOSES.